Time;durP1;ratioP1;P1;durP2;ratioP2;P2;SDS_P1;SDS_P2;PMS_P1;PMS_P2;Temp;Humidity;BMP_temperature;BMP_pressure;BME280_temperature;BME280_humidity;BME280_pressure;Samples;Min_cycle;Max_cycle;Signal;HPM_P1;HPM_P2
2021/08/18 17:35:45;;;;;;;3.43;2.00;;;;;;;;;;5126889;27;20731;-85
2021/08/18 17:38:12;;;;;;;2.22;1.80;;;;;;;;;;5128270;27;20402;-86
2021/08/18 17:40:40;;;;;;;2.53;2.05;;;;;;;;;;5126184;27;20411;-81
2021/08/18 17:43:07;;;;;;;2.67;1.90;;;;;;;;;;5124535;27;20480;-86
2021/08/18 17:45:34;;;;;;;3.95;1.83;;;;;;;;;;5124611;27;20443;-88
2021/08/18 17:48:01;;;;;;;4.90;2.00;;;;;;;;;;5132603;27;20481;-87
2021/08/18 17:50:28;;;;;;;2.78;1.63;;;;;;;;;;5109219;27;20417;-88
2021/08/18 17:52:56;;;;;;;3.25;1.92;;;;;;;;;;5107197;27;20400;-89
2021/08/18 17:55:23;;;;;;;1.95;1.75;;;;;;;;;;5108028;27;20417;-90
2021/08/18 17:57:50;;;;;;;1.90;1.70;;;;;;;;;;5109130;27;20402;-88
2021/08/18 18:00:17;;;;;;;2.47;1.80;;;;;;;;;;5109776;27;20829;-89
2021/08/18 18:02:44;;;;;;;2.53;1.80;;;;;;;;;;5107773;27;21313;-88
2021/08/18 18:05:11;;;;;;;3.78;2.00;;;;;;;;;;5119887;27;20835;-89
2021/08/18 18:07:39;;;;;;;2.67;1.85;;;;;;;;;;5127707;27;20871;-88
2021/08/18 18:10:10;;;;;;;3.58;1.85;;;;;;;;;;5126362;27;20408;-89
2021/08/18 18:12:37;;;;;;;2.08;1.80;;;;;;;;;;5125915;27;20418;-90
2021/08/18 18:15:09;;;;;;;2.97;1.85;;;;;;;;;;5127859;27;20437;-88
2021/08/18 18:17:36;;;;;;;2.45;1.88;;;;;;;;;;5125090;27;20784;-89
2021/08/18 18:20:03;;;;;;;3.10;2.00;;;;;;;;;;5125188;27;20393;-88
2021/08/18 18:22:31;;;;;;;3.53;2.03;;;;;;;;;;5113197;27;20959;-89
2021/08/18 18:24:59;;;;;;;2.97;1.95;;;;;;;;;;5112649;27;20411;-90
2021/08/18 18:27:28;;;;;;;3.45;2.20;;;;;;;;;;5103937;27;20412;-88
2021/08/18 18:29:55;;;;;;;2.50;1.98;;;;;;;;;;5102034;27;20403;-88
2021/08/18 18:32:22;;;;;;;3.10;2.00;;;;;;;;;;5107498;27;20425;-88
2021/08/18 18:34:49;;;;;;;3.33;2.00;;;;;;;;;;5104669;27;20415;-89
2021/08/18 18:37:15;;;;;;;2.92;2.08;;;;;;;;;;5106988;27;21095;-88
2021/08/18 18:39:42;;;;;;;2.97;2.10;;;;;;;;;;5107753;27;20415;-89
2021/08/18 18:42:09;;;;;;;3.30;1.90;;;;;;;;;;5104983;27;20406;-85
2021/08/18 18:44:38;;;;;;;2.90;1.95;;;;;;;;;;5103851;27;20400;-87
2021/08/18 18:47:04;;;;;;;2.35;1.90;;;;;;;;;;5089883;27;20427;-86
2021/08/18 18:49:33;;;;;;;3.58;2.00;;;;;;;;;;5093899;27;20405;-79
2021/08/18 18:52:20;;;;;;;3.80;2.10;;;;;;;;;;5095895;27;20410;-91
2021/08/18 18:54:47;;;;;;;4.90;3.53;;;;;;;;;;5094817;28;20414;-90
2021/08/18 18:57:15;;;;;;;2.92;2.20;;;;;;;;;;5104164;27;20421;-86
2021/08/18 18:59:46;;;;;;;3.15;2.20;;;;;;;;;;5099409;27;20487;-93
2021/08/18 19:02:13;;;;;;;4.32;2.40;;;;;;;;;;5093828;28;20418;-90
2021/08/18 19:04:43;;;;;;;3.70;2.50;;;;;;;;;;5097736;27;20407;-90
2021/08/18 19:07:11;;;;;;;3.80;2.50;;;;;;;;;;5094504;27;20410;-91
2021/08/18 19:09:38;;;;;;;4.72;2.60;;;;;;;;;;5089208;27;20408;-91
2021/08/18 19:12:06;;;;;;;4.37;2.57;;;;;;;;;;5090954;27;20551;-89
2021/08/18 19:14:33;;;;;;;5.15;3.35;;;;;;;;;;5098249;27;20405;-91
2021/08/18 19:17:01;;;;;;;4.95;3.03;;;;;;;;;;5094357;27;21154;-92
2021/08/18 19:19:28;;;;;;;4.13;2.63;;;;;;;;;;5094147;27;20504;-91
2021/08/18 19:21:56;;;;;;;3.17;2.60;;;;;;;;;;5097015;27;20397;-90
2021/08/18 19:24:23;;;;;;;4.85;3.10;;;;;;;;;;5101142;27;20438;-91
2021/08/18 19:26:50;;;;;;;4.90;2.90;;;;;;;;;;5104447;27;20482;-89
2021/08/18 19:29:16;;;;;;;4.10;2.97;;;;;;;;;;5111252;27;20414;-89
2021/08/18 19:31:45;;;;;;;6.33;3.10;;;;;;;;;;5102592;27;20412;-90
2021/08/18 19:34:13;;;;;;;5.93;3.08;;;;;;;;;;5095430;27;20406;-91
2021/08/18 19:36:40;;;;;;;5.82;3.15;;;;;;;;;;5112018;27;20446;-89
2021/08/18 19:39:07;;;;;;;5.78;3.28;;;;;;;;;;5111240;27;20395;-91
2021/08/18 19:41:34;;;;;;;3.95;3.05;;;;;;;;;;5105782;27;20414;-90
2021/08/18 19:44:01;;;;;;;5.72;3.03;;;;;;;;;;5112755;27;20394;-90
2021/08/18 19:46:28;;;;;;;5.65;3.08;;;;;;;;;;5107904;27;21381;-89
2021/08/18 19:48:55;;;;;;;5.03;3.03;;;;;;;;;;5111787;27;20406;-89
2021/08/18 19:51:23;;;;;;;5.55;3.03;;;;;;;;;;5103207;27;20495;-89
2021/08/18 19:53:50;;;;;;;3.17;2.72;;;;;;;;;;5100520;27;20406;-91
2021/08/18 19:56:18;;;;;;;5.35;3.13;;;;;;;;;;5100635;27;20476;-93
2021/08/18 19:58:45;;;;;;;5.47;3.10;;;;;;;;;;5103823;27;20401;-90
2021/08/18 20:01:12;;;;;;;5.80;3.60;;;;;;;;;;5099531;27;20423;-90
2021/08/18 20:03:39;;;;;;;5.68;3.60;;;;;;;;;;5111386;27;20465;-91
2021/08/18 20:06:06;;;;;;;5.07;3.72;;;;;;;;;;5107423;27;20765;-90
2021/08/18 20:08:34;;;;;;;5.05;3.63;;;;;;;;;;5114232;27;20401;-92
2021/08/18 20:11:01;;;;;;;5.93;3.92;;;;;;;;;;5108593;27;20509;-92
2021/08/18 20:13:31;;;;;;;4.60;3.72;;;;;;;;;;5113260;27;20404;-91
2021/08/18 20:15:58;;;;;;;5.97;3.80;;;;;;;;;;5107097;27;20524;-91
2021/08/18 20:18:24;;;;;;;4.93;3.47;;;;;;;;;;5111672;27;20421;-91
2021/08/18 20:20:52;;;;;;;6.05;3.63;;;;;;;;;;5112811;27;20389;-91
2021/08/18 20:23:18;;;;;;;4.70;3.60;;;;;;;;;;5100568;27;20490;-90
2021/08/18 20:25:47;;;;;;;5.70;3.97;;;;;;;;;;5111622;27;20461;-89
2021/08/18 20:28:14;;;;;;;4.40;3.50;;;;;;;;;;5099769;27;20464;-90
2021/08/18 20:30:43;;;;;;;4.78;3.45;;;;;;;;;;5103921;27;20452;-90
2021/08/18 20:33:10;;;;;;;5.50;3.20;;;;;;;;;;5106895;27;20648;-91
2021/08/18 20:35:37;;;;;;;4.90;3.00;;;;;;;;;;5114280;27;20408;-90
2021/08/18 20:38:04;;;;;;;3.53;2.92;;;;;;;;;;5113318;27;20418;-91
2021/08/18 20:40:31;;;;;;;4.95;3.08;;;;;;;;;;5112437;27;20408;-89
2021/08/18 20:43:00;;;;;;;4.50;3.28;;;;;;;;;;5108496;27;20451;-90
2021/08/18 20:45:26;;;;;;;4.72;3.17;;;;;;;;;;5109713;27;20410;-89
2021/08/18 20:47:53;;;;;;;4.47;2.87;;;;;;;;;;5104906;27;20443;-91
2021/08/18 20:50:20;;;;;;;4.55;3.08;;;;;;;;;;5098706;27;20407;-90
2021/08/18 20:52:47;;;;;;;4.55;3.17;;;;;;;;;;5096532;27;20914;-89
2021/08/18 20:55:14;;;;;;;3.55;3.05;;;;;;;;;;5108608;27;20425;-90
2021/08/18 20:57:41;;;;;;;4.30;3.15;;;;;;;;;;5114249;27;20794;-90
2021/08/18 21:00:11;;;;;;;4.00;3.22;;;;;;;;;;5107601;27;20405;-90
2021/08/18 21:02:38;;;;;;;3.88;3.47;;;;;;;;;;5109302;27;20400;-90
2021/08/18 21:05:05;;;;;;;6.03;3.80;;;;;;;;;;5109527;27;20400;-91
2021/08/18 21:07:33;;;;;;;6.45;3.63;;;;;;;;;;5109155;27;20759;-90
2021/08/18 21:09:59;;;;;;;4.68;3.42;;;;;;;;;;5095122;27;20438;-90
2021/08/18 21:12:26;;;;;;;4.93;3.70;;;;;;;;;;5112104;27;20409;-90
2021/08/18 21:14:53;;;;;;;4.53;3.70;;;;;;;;;;5110070;27;20414;-89
2021/08/18 21:17:22;;;;;;;4.57;3.70;;;;;;;;;;5103415;27;20406;-88
2021/08/18 21:19:48;;;;;;;6.03;3.42;;;;;;;;;;5104659;27;20438;-90
2021/08/18 21:22:15;;;;;;;3.70;3.10;;;;;;;;;;5096045;27;20932;-89
2021/08/18 21:24:44;;;;;;;4.25;3.20;;;;;;;;;;5103784;27;20398;-91
2021/08/18 21:27:11;;;;;;;7.20;3.58;;;;;;;;;;5109977;27;20417;-90
2021/08/18 21:29:38;;;;;;;4.78;3.38;;;;;;;;;;5113234;27;20441;-91
2021/08/18 21:32:06;;;;;;;4.07;3.25;;;;;;;;;;5089558;27;20413;-90
2021/08/18 21:34:34;;;;;;;4.57;3.30;;;;;;;;;;5102379;28;20409;-90
2021/08/18 21:37:02;;;;;;;7.00;3.20;;;;;;;;;;5096633;28;20855;-91
2021/08/18 21:39:29;;;;;;;5.32;3.28;;;;;;;;;;5097845;28;20452;-89
2021/08/18 21:41:56;;;;;;;4.28;3.55;;;;;;;;;;5102442;28;20403;-89
2021/08/18 21:44:23;;;;;;;5.90;3.70;;;;;;;;;;5106614;28;20392;-91
2021/08/18 21:46:50;;;;;;;4.75;3.30;;;;;;;;;;5103360;28;20404;-91
2021/08/18 21:49:18;;;;;;;5.18;3.35;;;;;;;;;;5101958;28;20400;-91
2021/08/18 21:51:49;;;;;;;5.90;3.33;;;;;;;;;;5090235;28;20716;-89
2021/08/18 21:54:16;;;;;;;5.32;3.20;;;;;;;;;;5104821;28;20494;-91
2021/08/18 21:56:44;;;;;;;4.28;3.28;;;;;;;;;;5094635;28;20451;-92
2021/08/18 21:59:11;;;;;;;3.73;2.93;;;;;;;;;;5105025;28;21038;-91
2021/08/18 22:01:38;;;;;;;4.13;3.17;;;;;;;;;;5110830;28;20397;-91
2021/08/18 22:04:05;;;;;;;3.25;2.95;;;;;;;;;;5109060;28;20750;-92
2021/08/18 22:06:32;;;;;;;4.97;3.40;;;;;;;;;;5103574;28;20401;-91
2021/08/18 22:09:00;;;;;;;3.97;3.20;;;;;;;;;;5107454;28;20403;-89
2021/08/18 22:11:27;;;;;;;3.92;3.33;;;;;;;;;;5114288;28;20453;-91
2021/08/18 22:13:54;;;;;;;4.03;3.30;;;;;;;;;;5105528;28;20413;-91
2021/08/18 22:16:21;;;;;;;4.00;3.42;;;;;;;;;;5107001;28;20418;-91
2021/08/18 22:18:48;;;;;;;3.42;3.13;;;;;;;;;;5105599;28;20406;-92
2021/08/18 22:21:14;;;;;;;3.50;3.10;;;;;;;;;;5102460;27;20413;-90
2021/08/18 22:23:41;;;;;;;5.38;3.47;;;;;;;;;;5109023;27;20778;-92
2021/08/18 22:26:10;;;;;;;3.88;3.22;;;;;;;;;;5106951;27;20403;-91
2021/08/18 22:28:37;;;;;;;4.60;3.20;;;;;;;;;;5110863;27;20404;-91
2021/08/18 22:31:03;;;;;;;5.22;3.50;;;;;;;;;;5111544;27;20971;-90
2021/08/18 22:33:30;;;;;;;5.28;3.40;;;;;;;;;;5111071;27;20420;-92
2021/08/18 22:35:57;;;;;;;3.97;3.38;;;;;;;;;;5105254;27;20406;-91
2021/08/18 22:38:24;;;;;;;4.88;3.47;;;;;;;;;;5109159;27;20881;-92
2021/08/18 22:40:51;;;;;;;3.90;3.50;;;;;;;;;;5108549;27;20406;-91
2021/08/18 22:43:20;;;;;;;5.18;3.42;;;;;;;;;;5112843;27;20410;-91
2021/08/18 22:45:48;;;;;;;4.37;3.80;;;;;;;;;;5113211;27;20562;-92
2021/08/18 22:48:15;;;;;;;4.65;3.30;;;;;;;;;;5105860;27;20882;-91
2021/08/18 22:50:42;;;;;;;4.00;3.47;;;;;;;;;;5107356;27;20394;-91
2021/08/18 22:53:09;;;;;;;5.25;3.58;;;;;;;;;;5106240;27;20403;-91
2021/08/18 22:55:35;;;;;;;4.90;3.53;;;;;;;;;;5105594;27;20540;-91
2021/08/18 22:58:03;;;;;;;6.22;3.30;;;;;;;;;;5104842;27;20399;-91
2021/08/18 23:00:31;;;;;;;5.55;3.72;;;;;;;;;;5106559;27;20402;-90
2021/08/18 23:02:58;;;;;;;6.57;3.53;;;;;;;;;;5107567;27;20670;-91
2021/08/18 23:05:25;;;;;;;7.43;3.87;;;;;;;;;;5105334;27;20409;-90
2021/08/18 23:07:52;;;;;;;4.78;3.83;;;;;;;;;;5104351;27;20399;-89
2021/08/18 23:10:19;;;;;;;4.47;3.90;;;;;;;;;;5105159;27;20888;-91
2021/08/18 23:12:45;;;;;;;5.70;4.00;;;;;;;;;;5100568;27;20645;-91
2021/08/18 23:15:12;;;;;;;5.63;3.83;;;;;;;;;;5104632;27;20402;-91
2021/08/18 23:17:40;;;;;;;7.13;4.10;;;;;;;;;;5102142;27;20735;-90
2021/08/18 23:20:08;;;;;;;5.10;3.90;;;;;;;;;;5109257;27;20412;-89
2021/08/18 23:22:35;;;;;;;5.03;3.80;;;;;;;;;;5112467;27;20751;-89
2021/08/18 23:25:02;;;;;;;4.50;3.72;;;;;;;;;;5107258;27;20399;-92
2021/08/18 23:27:29;;;;;;;3.95;3.42;;;;;;;;;;5105871;27;20430;-91
2021/08/18 23:29:56;;;;;;;5.57;3.65;;;;;;;;;;5093695;27;20391;-91
2021/08/18 23:32:23;;;;;;;5.25;3.75;;;;;;;;;;5106233;27;20902;-91
2021/08/18 23:34:52;;;;;;;4.47;3.50;;;;;;;;;;5110322;27;20959;-90
2021/08/18 23:37:18;;;;;;;5.03;3.70;;;;;;;;;;5110822;27;20413;-91
2021/08/18 23:39:45;;;;;;;4.05;3.13;;;;;;;;;;5113139;27;20808;-90
2021/08/18 23:42:13;;;;;;;4.15;3.10;;;;;;;;;;5110649;27;20774;-91
2021/08/18 23:44:40;;;;;;;5.07;3.30;;;;;;;;;;5099587;27;20595;-89
2021/08/18 23:47:07;;;;;;;5.07;3.20;;;;;;;;;;5107012;27;20408;-91
2021/08/18 23:49:34;;;;;;;4.60;3.17;;;;;;;;;;5098847;27;20404;-88
2021/08/18 23:52:03;;;;;;;5.13;3.05;;;;;;;;;;5093914;27;20396;-90
2021/08/18 23:54:30;;;;;;;3.83;2.63;;;;;;;;;;5100124;27;20404;-90
2021/08/18 23:56:57;;;;;;;3.67;2.88;;;;;;;;;;5100791;27;20427;-91
2021/08/18 23:59:24;;;;;;;3.83;2.50;;;;;;;;;;5108428;27;20402;-89
